Time;durP1;ratioP1;P1;durP2;ratioP2;P2;SDS_P1;SDS_P2;PMS_P1;PMS_P2;Temp;Humidity;BMP_temperature;BMP_pressure;BME280_temperature;BME280_humidity;BME280_pressure;Samples;Min_cycle;Max_cycle;Signal;HPM_P1;HPM_P2
2021/12/26 00:02:11;;;;;;;16.63;10.67;;;-7.50;85.80;;;;;;5054012;28;20221;-89
2021/12/26 00:04:36;;;;;;;18.23;11.50;;;-7.60;85.50;;;;;;5053005;28;20709;-88
2021/12/26 00:07:03;;;;;;;16.37;11.63;;;-7.60;85.40;;;;;;5052765;28;20219;-87
2021/12/26 00:09:29;;;;;;;17.53;11.43;;;-7.70;85.20;;;;;;5052613;28;20666;-87
2021/12/26 00:11:54;;;;;;;19.40;11.53;;;-7.70;85.10;;;;;;5052732;28;20186;-86
2021/12/26 00:14:20;;;;;;;15.93;11.63;;;-7.70;85.20;;;;;;5053065;28;20211;-88
2021/12/26 00:16:46;;;;;;;25.53;11.63;;;-7.70;85.30;;;;;;5052527;28;20166;-87
2021/12/26 00:19:12;;;;;;;22.10;11.87;;;-7.70;85.30;;;;;;5052484;28;20235;-88
2021/12/26 00:21:38;;;;;;;22.47;12.57;;;-7.70;85.30;;;;;;5052342;28;20588;-88
2021/12/26 00:24:05;;;;;;;19.00;11.77;;;-7.70;85.30;;;;;;5052358;28;20237;-88
2021/12/26 00:26:32;;;;;;;25.93;12.23;;;-7.70;85.30;;;;;;5052370;28;20231;-88
2021/12/26 00:29:01;;;;;;;19.10;11.93;;;-7.60;85.30;;;;;;5053525;28;20196;-87
2021/12/26 00:31:26;;;;;;;24.67;12.33;;;-7.60;85.30;;;;;;5052347;28;20272;-87
2021/12/26 00:33:53;;;;;;;22.17;11.40;;;-7.60;85.10;;;;;;5052417;28;20236;-87
2021/12/26 00:36:18;;;;;;;17.80;10.87;;;-7.70;84.80;;;;;;5053692;28;20177;-87
2021/12/26 00:38:45;;;;;;;22.83;12.03;;;-7.70;84.70;;;;;;5053354;28;20234;-87
2021/12/26 00:41:11;;;;;;;21.40;11.83;;;-7.80;84.60;;;;;;5052079;28;20276;-87
2021/12/26 00:43:36;;;;;;;19.57;11.83;;;-7.70;84.70;;;;;;5052126;28;20650;-87
2021/12/26 00:46:03;;;;;;;22.53;13.03;;;-7.80;84.60;;;;;;5053317;28;20172;-87
2021/12/26 00:48:29;;;;;;;18.37;11.87;;;-7.80;84.60;;;;;;5052023;28;20208;-87
2021/12/26 00:50:54;;;;;;;19.87;11.60;;;-7.80;84.60;;;;;;5053259;28;20169;-86
2021/12/26 00:53:20;;;;;;;21.60;12.37;;;-7.80;84.70;;;;;;5051936;28;20211;-86
2021/12/26 00:55:46;;;;;;;24.80;12.60;;;-7.80;84.60;;;;;;5052182;28;20202;-87
2021/12/26 00:58:12;;;;;;;21.57;11.83;;;-7.90;84.50;;;;;;5052097;28;20171;-87
2021/12/26 01:00:41;;;;;;;18.83;11.80;;;-8.00;84.60;;;;;;5051915;28;20224;-87
2021/12/26 01:03:08;;;;;;;16.60;10.90;;;-8.00;84.70;;;;;;5053094;28;20169;-87
2021/12/26 01:05:36;;;;;;;17.33;11.90;;;-8.00;84.70;;;;;;5053002;28;20190;-86
2021/12/26 01:08:04;;;;;;;19.53;11.37;;;-8.00;84.70;;;;;;5053120;28;20546;-86
2021/12/26 01:10:33;;;;;;;18.40;11.87;;;-8.10;84.70;;;;;;5053037;28;20165;-86
2021/12/26 01:13:09;;;;;;;21.90;13.20;;;-8.10;84.60;;;;;;5051765;28;20712;-86
2021/12/26 01:15:35;;;;;;;20.33;11.53;;;-8.10;84.50;;;;;;5052670;28;20302;-86
2021/12/26 01:18:00;;;;;;;19.80;11.20;;;-8.20;84.30;;;;;;5056064;28;20259;-87
2021/12/26 01:20:41;;;;;;;24.53;11.73;;;-8.30;84.20;;;;;;5055938;28;20727;-86
2021/12/26 01:23:09;;;;;;;22.50;11.07;;;-8.30;84.20;;;;;;5055809;28;20527;-86
2021/12/26 01:25:35;;;;;;;18.70;11.23;;;-8.20;84.10;;;;;;5055673;28;20584;-86
2021/12/26 01:28:01;;;;;;;22.10;11.90;;;-8.30;84.20;;;;;;5056821;28;20659;-87
2021/12/26 01:30:26;;;;;;;20.43;11.37;;;-8.30;84.10;;;;;;5056118;28;20176;-86
2021/12/26 01:32:52;;;;;;;20.40;12.53;;;-8.20;84.30;;;;;;5055598;28;20647;-86
2021/12/26 01:35:18;;;;;;;18.20;11.50;;;-8.10;84.30;;;;;;5055488;28;20207;-87
2021/12/26 01:37:43;;;;;;;17.53;11.27;;;-8.10;84.20;;;;;;5055435;28;20180;-86
2021/12/26 01:40:09;;;;;;;21.37;12.13;;;-8.10;84.20;;;;;;5055432;28;20187;-86
2021/12/26 01:42:35;;;;;;;19.20;11.63;;;-8.00;84.50;;;;;;5055172;28;20208;-86
2021/12/26 01:45:01;;;;;;;20.17;11.10;;;-8.00;84.50;;;;;;5055255;28;20196;-86
2021/12/26 01:47:26;;;;;;;19.03;11.33;;;-8.00;84.50;;;;;;5055257;28;20280;-86
2021/12/26 01:49:52;;;;;;;17.03;10.20;;;-8.10;84.40;;;;;;5055290;28;20234;-86
2021/12/26 01:52:18;;;;;;;19.80;10.47;;;-8.20;84.40;;;;;;5056378;28;20173;-87
2021/12/26 01:57:12;;;;;;;16.17;11.13;;;-8.20;84.70;;;;;;5056393;28;20167;-86
2021/12/26 01:59:39;;;;;;;14.47;10.27;;;-8.10;84.80;;;;;;5055103;28;20185;-86
2021/12/26 02:02:05;;;;;;;18.47;11.27;;;-8.10;84.80;;;;;;5054939;28;20199;-86
2021/12/26 02:04:31;;;;;;;21.40;12.13;;;-8.20;84.70;;;;;;5055033;28;20206;-86
2021/12/26 02:07:02;;;;;;;19.47;11.53;;;-8.10;84.90;;;;;;5054916;28;20180;-86
2021/12/26 02:09:29;;;;;;;18.60;11.10;;;-8.10;85.10;;;;;;5056479;28;20157;-86
2021/12/26 02:11:55;;;;;;;16.83;11.13;;;-8.00;85.10;;;;;;5056105;28;20176;-86
2021/12/26 02:14:21;;;;;;;16.53;11.70;;;-8.10;84.90;;;;;;5055925;28;20305;-86
2021/12/26 02:16:47;;;;;;;23.50;11.50;;;-8.20;84.80;;;;;;5055965;28;20664;-85
2021/12/26 02:19:13;;;;;;;18.87;11.83;;;-8.20;84.90;;;;;;5055932;28;20204;-86
2021/12/26 02:22:08;;;;;;;21.13;11.80;;;-8.30;84.90;;;;;;5055802;28;20196;-86
2021/12/26 02:24:57;;;;;;;17.30;11.17;;;-8.30;84.90;;;;;;5055389;28;20211;-86
2021/12/26 02:27:31;;;;;;;23.57;11.53;;;-8.20;85.10;;;;;;5054873;28;20264;-86
2021/12/26 02:30:10;;;;;;;18.47;12.67;;;-8.10;85.20;;;;;;5056366;28;20161;-86
2021/12/26 02:32:36;;;;;;;24.47;12.80;;;-8.00;85.30;;;;;;5054422;28;20637;-86
2021/12/26 02:35:04;;;;;;;26.97;14.67;;;-8.00;85.50;;;;;;5055640;28;20195;-86
2021/12/26 02:37:29;;;;;;;28.73;14.57;;;-8.00;85.70;;;;;;5055602;28;20180;-86
2021/12/26 02:39:55;;;;;;;28.50;15.27;;;-8.00;86.00;;;;;;5054319;28;20180;-86
2021/12/26 02:42:22;;;;;;;26.43;15.47;;;-8.00;86.30;;;;;;5054215;28;20195;-86
2021/12/26 02:44:49;;;;;;;24.83;14.60;;;-8.00;86.50;;;;;;5054164;28;20286;-86
2021/12/26 02:47:34;;;;;;;21.53;14.33;;;-8.00;86.60;;;;;;5054224;28;20227;-86
2021/12/26 02:50:10;;;;;;;24.47;13.93;;;-8.00;86.80;;;;;;5054281;28;20173;-86
2021/12/26 02:52:36;;;;;;;28.17;15.43;;;-8.10;86.90;;;;;;5054142;28;20183;-86
2021/12/26 02:55:02;;;;;;;24.37;14.37;;;-8.10;87.00;;;;;;5055198;28;20585;-86
2021/12/26 02:57:28;;;;;;;32.10;16.23;;;-8.10;87.20;;;;;;5054085;28;20686;-86
2021/12/26 02:59:54;;;;;;;26.73;16.60;;;-8.10;87.20;;;;;;5054062;28;20183;-86
2021/12/26 03:02:20;;;;;;;28.23;16.13;;;-8.10;87.50;;;;;;5055061;28;20252;-86
2021/12/26 03:04:45;;;;;;;35.10;17.90;;;-8.10;87.50;;;;;;5053742;28;20667;-86
2021/12/26 03:07:11;;;;;;;32.80;17.67;;;-8.10;87.70;;;;;;5053808;28;20213;-86
2021/12/26 03:09:45;;;;;;;32.97;17.40;;;-8.10;87.70;;;;;;5053783;28;20183;-86
2021/12/26 03:12:11;;;;;;;29.40;16.83;;;-8.20;87.70;;;;;;5053727;28;20178;-86
2021/12/26 03:14:38;;;;;;;32.67;18.40;;;-8.20;87.70;;;;;;5054960;28;20215;-86
2021/12/26 03:17:04;;;;;;;33.20;19.00;;;-8.20;87.80;;;;;;5053707;28;20259;-86
2021/12/26 03:19:31;;;;;;;34.87;18.70;;;-8.20;87.80;;;;;;5053629;28;20187;-86
2021/12/26 03:21:57;;;;;;;31.80;18.87;;;-8.20;87.90;;;;;;5053406;28;20207;-86
2021/12/26 03:24:23;;;;;;;33.77;18.83;;;-8.20;87.90;;;;;;5054713;28;20698;-86
2021/12/26 03:26:48;;;;;;;28.57;18.20;;;-8.20;87.90;;;;;;5055002;28;20168;-86
2021/12/26 03:29:14;;;;;;;33.13;19.07;;;-8.30;87.90;;;;;;5053270;28;20176;-86
2021/12/26 03:31:41;;;;;;;34.63;19.27;;;-8.30;88.00;;;;;;5053491;28;20177;-86
2021/12/26 03:34:08;;;;;;;33.93;19.97;;;-8.30;88.00;;;;;;5053263;28;20305;-86
2021/12/26 03:36:33;;;;;;;31.23;18.83;;;-8.20;88.10;;;;;;5053255;28;20181;-86
2021/12/26 03:38:59;;;;;;;34.03;17.80;;;-8.10;88.20;;;;;;5054262;28;20644;-86
2021/12/26 03:41:25;;;;;;;28.87;18.30;;;-8.10;88.20;;;;;;5053021;28;20687;-86
2021/12/26 03:43:51;;;;;;;36.77;19.93;;;-8.10;88.10;;;;;;5053098;28;20247;-85
2021/12/26 03:46:17;;;;;;;32.97;17.93;;;-8.10;88.10;;;;;;5053430;28;20617;-86
2021/12/26 03:48:43;;;;;;;34.10;18.77;;;-8.10;88.20;;;;;;5054269;28;20172;-86
2021/12/26 03:51:09;;;;;;;31.67;18.57;;;-8.10;88.20;;;;;;5054180;28;20180;-86
2021/12/26 03:53:35;;;;;;;33.27;18.77;;;-8.00;88.20;;;;;;5054128;28;20179;-86
2021/12/26 03:56:01;;;;;;;32.23;19.20;;;-8.10;88.00;;;;;;5052938;28;20182;-86
2021/12/26 03:58:27;;;;;;;32.67;17.07;;;-8.20;87.80;;;;;;5052780;28;20648;-86
2021/12/26 04:00:54;;;;;;;31.60;17.27;;;-8.30;87.90;;;;;;5053918;28;20207;-86
2021/12/26 04:03:20;;;;;;;31.33;17.43;;;-8.30;88.00;;;;;;5052643;28;20179;-86
2021/12/26 04:05:46;;;;;;;32.60;16.13;;;-8.20;88.20;;;;;;5053009;28;20219;-86
2021/12/26 04:08:11;;;;;;;28.30;16.87;;;-8.10;88.30;;;;;;5052853;28;20200;-86
2021/12/26 04:10:37;;;;;;;26.57;16.37;;;-8.10;88.40;;;;;;5052687;28;20219;-86
2021/12/26 04:13:04;;;;;;;30.97;16.80;;;-8.00;88.40;;;;;;5052613;28;20180;-86
2021/12/26 04:15:30;;;;;;;30.07;15.00;;;-8.10;88.30;;;;;;5146698;22;20262;-87
2021/12/26 04:17:57;;;;;;;32.23;16.50;;;-8.20;88.30;;;;;;5052492;28;20283;-87
2021/12/26 04:20:23;;;;;;;27.33;15.93;;;-8.20;88.20;;;;;;5052392;28;20203;-86
2021/12/26 04:22:50;;;;;;;29.90;17.03;;;-8.30;88.20;;;;;;5052258;28;20263;-87
2021/12/26 04:25:17;;;;;;;25.60;16.50;;;-8.30;88.10;;;;;;5052230;28;20197;-86
2021/12/26 04:27:43;;;;;;;22.33;13.90;;;-8.30;88.00;;;;;;5052354;28;20172;-86
2021/12/26 04:30:12;;;;;;;25.93;15.03;;;-8.30;87.90;;;;;;5053564;28;20175;-86
2021/12/26 04:32:39;;;;;;;28.13;14.30;;;-8.40;87.90;;;;;;5053526;28;20168;-86
2021/12/26 04:35:05;;;;;;;31.03;15.23;;;-8.40;87.90;;;;;;5053580;28;20192;-86
2021/12/26 04:37:31;;;;;;;34.50;16.30;;;-8.40;88.00;;;;;;5052146;28;20176;-86
2021/12/26 04:39:57;;;;;;;26.83;15.57;;;-8.40;88.00;;;;;;5052283;28;20206;-86
2021/12/26 04:42:23;;;;;;;29.43;15.43;;;-8.40;88.00;;;;;;5053624;28;20206;-86
2021/12/26 04:44:51;;;;;;;24.80;15.33;;;-8.40;88.00;;;;;;5052075;28;20200;-86
2021/12/26 04:47:16;;;;;;;34.10;15.23;;;-8.40;88.10;;;;;;5052013;28;20592;-86
2021/12/26 04:49:42;;;;;;;26.67;15.00;;;-8.40;87.90;;;;;;5053243;28;20180;-86
2021/12/26 04:52:08;;;;;;;27.63;14.93;;;-8.60;87.70;;;;;;5052757;28;20256;-86
2021/12/26 04:54:33;;;;;;;26.70;15.60;;;-8.60;87.80;;;;;;5051991;28;20192;-86
2021/12/26 04:56:59;;;;;;;26.43;14.40;;;-8.50;87.90;;;;;;5052017;28;20674;-86
2021/12/26 04:59:26;;;;;;;26.90;15.43;;;-8.50;87.90;;;;;;5051931;28;20179;-86
2021/12/26 05:01:53;;;;;;;27.70;12.87;;;-8.50;87.80;;;;;;5052016;28;20234;-86
2021/12/26 05:04:19;;;;;;;28.53;13.70;;;-8.50;87.90;;;;;;5051730;28;20187;-86
2021/12/26 05:06:46;;;;;;;23.20;12.87;;;-8.50;87.90;;;;;;5051763;28;20521;-86
2021/12/26 05:09:13;;;;;;;27.80;13.80;;;-8.60;88.00;;;;;;5051817;28;20321;-86
2021/12/26 05:11:39;;;;;;;24.80;13.27;;;-8.50;88.10;;;;;;5052948;28;20259;-86
2021/12/26 05:14:05;;;;;;;29.80;15.00;;;-8.50;88.20;;;;;;5051573;28;20684;-86
2021/12/26 05:16:31;;;;;;;26.20;14.60;;;-8.40;88.20;;;;;;5051707;28;20174;-86
2021/12/26 05:18:56;;;;;;;25.40;13.90;;;-8.40;88.20;;;;;;5051695;28;20314;-86
2021/12/26 05:21:22;;;;;;;21.63;12.93;;;-8.50;88.00;;;;;;5051587;28;20231;-86
2021/12/26 05:23:48;;;;;;;21.13;13.13;;;-8.50;88.00;;;;;;5052889;28;20257;-86
2021/12/26 05:26:14;;;;;;;22.43;12.93;;;-8.50;88.00;;;;;;5051754;28;20172;-86
2021/12/26 05:28:39;;;;;;;24.47;13.27;;;-8.50;87.80;;;;;;5051590;28;20179;-86
2021/12/26 05:31:05;;;;;;;22.47;12.43;;;-8.50;87.80;;;;;;5051630;28;20176;-86
2021/12/26 05:33:31;;;;;;;23.27;12.23;;;-8.50;87.80;;;;;;5052805;28;20200;-86
2021/12/26 05:35:56;;;;;;;21.53;11.90;;;-8.50;87.80;;;;;;5051510;28;20176;-86
2021/12/26 05:38:22;;;;;;;28.03;11.67;;;-8.50;87.70;;;;;;5051503;28;20176;-86
2021/12/26 05:40:48;;;;;;;21.73;12.33;;;-8.50;87.70;;;;;;5051450;28;20263;-86
2021/12/26 05:43:14;;;;;;;22.47;12.23;;;-8.40;87.80;;;;;;5051591;28;20254;-86
2021/12/26 05:45:39;;;;;;;18.53;11.07;;;-8.40;87.70;;;;;;5052699;28;20195;-86
2021/12/26 05:48:05;;;;;;;24.90;12.80;;;-8.50;87.50;;;;;;5051564;28;20238;-86
2021/12/26 05:50:30;;;;;;;21.00;11.37;;;-8.60;87.50;;;;;;5051455;28;20180;-86
2021/12/26 05:52:56;;;;;;;18.60;10.83;;;-8.60;87.50;;;;;;5051434;28;20228;-86
2021/12/26 05:55:22;;;;;;;18.13;10.53;;;-8.60;87.50;;;;;;5051481;28;20291;-86
2021/12/26 05:57:47;;;;;;;19.57;10.20;;;-8.50;87.50;;;;;;5052345;28;20186;-86
2021/12/26 06:00:16;;;;;;;22.30;11.10;;;-8.50;87.50;;;;;;5051379;28;20672;-86
2021/12/26 06:02:41;;;;;;;19.80;10.87;;;-8.50;87.40;;;;;;5054717;28;20242;-86
2021/12/26 06:05:08;;;;;;;23.63;10.93;;;-8.60;87.40;;;;;;5056143;28;20622;-86
2021/12/26 06:07:34;;;;;;;21.97;11.50;;;-8.60;87.30;;;;;;5054932;28;20187;-86
2021/12/26 06:09:59;;;;;;;16.50;9.27;;;-8.50;87.40;;;;;;5054785;28;20548;-86
2021/12/26 06:12:25;;;;;;;21.73;10.00;;;-8.50;87.30;;;;;;5054921;28;20180;-86
2021/12/26 06:14:51;;;;;;;18.33;10.63;;;-8.50;87.30;;;;;;5054520;28;20226;-86
2021/12/26 06:17:16;;;;;;;18.10;10.13;;;-8.60;87.10;;;;;;5055985;28;20259;-86
2021/12/26 06:19:42;;;;;;;18.40;10.87;;;-8.60;86.90;;;;;;5055908;28;20184;-86
2021/12/26 06:22:08;;;;;;;23.47;10.70;;;-8.70;86.60;;;;;;5054431;28;20196;-86
2021/12/26 06:24:34;;;;;;;12.90;8.73;;;-8.80;86.50;;;;;;5054882;28;20231;-87
2021/12/26 06:26:59;;;;;;;13.83;8.43;;;-8.80;86.60;;;;;;5056224;28;20172;-86
2021/12/26 06:29:25;;;;;;;15.83;9.43;;;-8.80;86.50;;;;;;5054595;28;20182;-87
2021/12/26 06:31:50;;;;;;;21.27;10.07;;;-8.80;86.40;;;;;;5054526;28;20188;-86
2021/12/26 06:34:16;;;;;;;17.73;9.47;;;-8.90;86.30;;;;;;5055657;28;20691;-86
2021/12/26 06:36:42;;;;;;;15.97;9.90;;;-9.00;86.10;;;;;;5054300;28;20176;-86
2021/12/26 06:39:08;;;;;;;22.33;9.97;;;-9.00;86.20;;;;;;5054507;28;20180;-87
2021/12/26 06:41:33;;;;;;;25.93;10.63;;;-9.00;86.20;;;;;;5055478;28;20196;-86
2021/12/26 06:43:59;;;;;;;17.20;8.97;;;-8.90;86.10;;;;;;5055637;28;20248;-86
2021/12/26 06:46:25;;;;;;;17.67;9.40;;;-8.90;85.80;;;;;;5054214;28;20179;-86
2021/12/26 06:48:51;;;;;;;18.20;9.70;;;-8.90;85.70;;;;;;5055520;28;20179;-87
2021/12/26 06:51:18;;;;;;;23.33;9.33;;;-9.00;85.50;;;;;;5054175;28;20647;-86
2021/12/26 06:53:44;;;;;;;17.30;10.03;;;-9.00;85.40;;;;;;5055056;28;20172;-87
2021/12/26 06:56:10;;;;;;;13.93;8.67;;;-9.10;85.30;;;;;;5054110;28;20190;-87
2021/12/26 06:58:35;;;;;;;17.67;8.07;;;-9.10;85.40;;;;;;5055222;28;20222;-87
2021/12/26 07:01:01;;;;;;;16.13;8.43;;;-9.00;85.40;;;;;;5053937;28;20219;-86
2021/12/26 07:03:27;;;;;;;17.17;8.07;;;-9.00;85.40;;;;;;5053889;28;20268;-87
2021/12/26 07:05:52;;;;;;;14.20;8.70;;;-9.00;85.70;;;;;;5053878;28;20192;-87
2021/12/26 07:08:18;;;;;;;11.20;8.03;;;-9.00;86.10;;;;;;5055020;28;20217;-86
2021/12/26 07:10:44;;;;;;;15.90;8.80;;;-8.90;86.40;;;;;;5053888;28;20168;-86
2021/12/26 07:13:10;;;;;;;12.07;8.00;;;-8.80;86.40;;;;;;5053303;28;20176;-86
2021/12/26 07:15:37;;;;;;;11.20;7.50;;;-8.90;86.20;;;;;;5053415;28;20227;-86
2021/12/26 07:18:03;;;;;;;19.33;7.37;;;-8.90;86.20;;;;;;5053581;28;20238;-86
2021/12/26 07:20:29;;;;;;;13.93;8.33;;;-8.80;86.10;;;;;;5054843;28;20174;-86
2021/12/26 07:22:55;;;;;;;17.10;8.03;;;-8.90;86.20;;;;;;5054649;28;20334;-86
2021/12/26 07:25:21;;;;;;;13.30;7.40;;;-8.90;86.60;;;;;;5053297;28;20241;-86
2021/12/26 07:27:46;;;;;;;20.57;8.70;;;-8.80;86.80;;;;;;5054948;28;20168;-86
2021/12/26 07:30:12;;;;;;;17.53;8.83;;;-8.70;86.90;;;;;;5053258;28;20172;-86
2021/12/26 07:32:38;;;;;;;12.43;8.13;;;-8.60;86.90;;;;;;5054651;28;20245;-86
2021/12/26 07:35:05;;;;;;;16.83;8.23;;;-8.60;87.00;;;;;;5053279;28;20695;-86
2021/12/26 07:37:30;;;;;;;15.00;9.33;;;-8.70;86.70;;;;;;5054326;28;20183;-87
2021/12/26 07:39:56;;;;;;;14.97;8.97;;;-8.70;86.70;;;;;;5053188;28;20175;-86
2021/12/26 07:42:22;;;;;;;16.07;9.63;;;-8.70;86.80;;;;;;5053119;28;20192;-86
2021/12/26 07:44:47;;;;;;;15.90;9.13;;;-8.70;87.00;;;;;;5053113;28;20609;-86
2021/12/26 07:47:13;;;;;;;14.93;9.03;;;-8.80;87.00;;;;;;5054257;28;20179;-86
2021/12/26 07:49:40;;;;;;;22.00;10.17;;;-8.80;87.20;;;;;;5053134;28;20172;-86
2021/12/26 07:52:12;;;;;;;16.03;10.00;;;-8.80;87.20;;;;;;5052914;28;20648;-86
2021/12/26 07:54:39;;;;;;;22.23;10.00;;;-8.80;87.20;;;;;;5052920;28;20249;-86
2021/12/26 07:57:06;;;;;;;22.87;9.93;;;-8.90;87.20;;;;;;5052878;28;20301;-87
2021/12/26 07:59:32;;;;;;;13.60;8.87;;;-9.00;87.10;;;;;;5054117;28;20251;-86
2021/12/26 08:01:58;;;;;;;15.27;7.77;;;-8.90;87.10;;;;;;5052649;28;20341;-86
2021/12/26 08:04:24;;;;;;;13.23;7.37;;;-8.80;87.10;;;;;;5052570;28;20239;-86
2021/12/26 08:06:50;;;;;;;10.73;7.33;;;-8.70;87.20;;;;;;5052706;28;20250;-86
2021/12/26 08:09:16;;;;;;;10.77;7.60;;;-8.60;87.30;;;;;;5052712;28;20643;-86
2021/12/26 08:11:41;;;;;;;15.80;8.17;;;-8.50;87.30;;;;;;5052632;28;20233;-86
2021/12/26 08:14:07;;;;;;;13.80;6.53;;;-8.40;87.40;;;;;;5053647;28;20304;-86
2021/12/26 08:16:33;;;;;;;9.57;6.73;;;-8.40;87.40;;;;;;5053736;28;20187;-86
2021/12/26 08:18:58;;;;;;;16.13;6.83;;;-8.30;87.50;;;;;;5052529;28;20195;-85
2021/12/26 08:21:24;;;;;;;10.00;6.70;;;-8.10;87.40;;;;;;5053953;28;20254;-88
2021/12/26 08:23:49;;;;;;;10.13;5.97;;;-7.90;87.30;;;;;;5052439;28;20175;-87
2021/12/26 08:26:15;;;;;;;13.53;6.57;;;-7.80;87.10;;;;;;5051656;28;20173;-87
2021/12/26 08:28:41;;;;;;;13.03;6.90;;;-7.70;86.90;;;;;;5053659;28;20586;-87
2021/12/26 08:31:07;;;;;;;13.97;6.67;;;-7.60;86.90;;;;;;5052443;28;20557;-88
2021/12/26 08:33:32;;;;;;;12.87;7.40;;;-7.50;86.70;;;;;;5053536;28;20200;-87
2021/12/26 08:35:58;;;;;;;10.00;6.40;;;-7.40;86.40;;;;;;5053774;28;20169;-87
2021/12/26 08:38:24;;;;;;;11.67;6.80;;;-7.30;86.20;;;;;;5052289;28;20178;-87
2021/12/26 08:40:53;;;;;;;10.20;6.57;;;-7.20;85.90;;;;;;5052173;28;20168;-87
2021/12/26 08:43:19;;;;;;;10.90;6.70;;;-7.10;85.70;;;;;;5052387;28;20196;-86
2021/12/26 08:45:46;;;;;;;8.73;5.60;;;-7.00;85.60;;;;;;5052030;28;20280;-87
2021/12/26 08:48:12;;;;;;;9.07;5.33;;;-7.00;85.50;;;;;;5053353;28;20171;-86
2021/12/26 08:50:37;;;;;;;9.53;5.47;;;-6.80;85.50;;;;;;5053290;28;20172;-87
2021/12/26 08:53:03;;;;;;;13.67;6.57;;;-6.80;85.40;;;;;;5053526;28;20179;-86
2021/12/26 08:55:30;;;;;;;8.27;5.63;;;-6.70;85.40;;;;;;5051881;28;20383;-86
2021/12/26 08:57:56;;;;;;;10.53;6.50;;;-6.70;85.60;;;;;;5051878;28;20176;-86
2021/12/26 09:00:23;;;;;;;11.50;6.17;;;-6.70;85.40;;;;;;5051937;28;20188;-86
2021/12/26 09:02:52;;;;;;;11.33;6.40;;;-6.60;85.00;;;;;;5051764;28;20207;-86
2021/12/26 09:05:18;;;;;;;13.10;6.30;;;-6.50;84.80;;;;;;5051823;28;20193;-86
2021/12/26 09:07:44;;;;;;;9.77;5.87;;;-6.50;84.90;;;;;;5052970;28;20676;-85
2021/12/26 09:10:12;;;;;;;12.30;6.77;;;-6.40;84.80;;;;;;5051990;28;20172;-86
2021/12/26 09:12:38;;;;;;;10.13;6.57;;;-6.30;84.90;;;;;;5051738;28;20231;-86
2021/12/26 09:15:06;;;;;;;9.20;6.47;;;-6.30;85.00;;;;;;5051666;28;20217;-86
2021/12/26 09:17:31;;;;;;;17.20;7.87;;;-6.30;85.00;;;;;;5051786;28;20180;-86
2021/12/26 09:19:57;;;;;;;11.23;7.17;;;-6.20;85.10;;;;;;5051780;28;20546;-86
2021/12/26 09:22:23;;;;;;;9.47;6.77;;;-6.20;85.20;;;;;;5051546;28;20244;-86
2021/12/26 09:24:49;;;;;;;12.33;7.30;;;-6.10;85.50;;;;;;5052816;28;20182;-86
2021/12/26 09:27:15;;;;;;;13.63;7.27;;;-6.00;85.70;;;;;;5052966;28;20644;-86
2021/12/26 09:29:41;;;;;;;13.57;7.27;;;-6.00;85.70;;;;;;5051536;28;20168;-86
2021/12/26 09:32:08;;;;;;;14.97;7.53;;;-5.90;85.30;;;;;;5051515;28;20325;-86
2021/12/26 09:34:34;;;;;;;13.13;7.37;;;-5.80;85.30;;;;;;5051425;28;20205;-86
2021/12/26 09:37:03;;;;;;;13.07;7.40;;;-5.80;85.10;;;;;;5053917;28;20171;-85
2021/12/26 09:39:28;;;;;;;12.03;7.67;;;-5.70;85.10;;;;;;5056635;28;20174;-86
2021/12/26 09:41:54;;;;;;;12.77;8.40;;;-5.70;85.40;;;;;;5055478;28;20300;-86
2021/12/26 09:44:21;;;;;;;16.27;7.90;;;-5.60;85.40;;;;;;5056491;28;20196;-86
2021/12/26 09:46:47;;;;;;;13.77;7.73;;;-5.60;85.40;;;;;;5056508;28;20190;-85
2021/12/26 09:49:13;;;;;;;12.23;8.50;;;-5.60;85.20;;;;;;5056408;28;20647;-85
2021/12/26 09:51:39;;;;;;;20.80;8.43;;;-5.50;85.20;;;;;;5055123;28;20232;-85
2021/12/26 09:54:06;;;;;;;11.60;7.70;;;-5.40;85.00;;;;;;5056281;28;20195;-85
2021/12/26 09:56:32;;;;;;;12.30;7.63;;;-5.40;85.10;;;;;;5056307;28;20175;-85
2021/12/26 09:59:01;;;;;;;14.20;7.77;;;-5.40;85.10;;;;;;5055102;28;20176;-85
2021/12/26 10:01:33;;;;;;;10.37;6.37;;;-5.30;85.00;;;;;;5054941;28;20202;-85
2021/12/26 10:04:26;;;;;;;11.87;6.60;;;-5.20;84.80;;;;;;5054880;28;20699;-85
2021/12/26 10:07:00;;;;;;;9.43;6.33;;;-5.10;84.20;;;;;;5051242;28;20206;-85
2021/12/26 10:09:27;;;;;;;10.93;5.63;;;-5.00;83.50;;;;;;5056584;28;20197;-85
2021/12/26 10:11:55;;;;;;;13.03;6.97;;;-5.00;83.60;;;;;;5054979;28;20191;-85
2021/12/26 10:14:24;;;;;;;12.50;6.70;;;-4.90;83.60;;;;;;5146800;22;21661;-88
2021/12/26 10:16:59;;;;;;;10.73;7.00;;;-4.80;83.90;;;;;;5054960;28;20168;-88
2021/12/26 10:19:25;;;;;;;9.77;6.20;;;-4.80;83.30;;;;;;5054811;28;20164;-88
2021/12/26 10:21:50;;;;;;;7.87;6.57;;;-4.80;82.80;;;;;;5055842;28;20199;-88
2021/12/26 10:24:22;;;;;;;9.60;6.20;;;-4.70;82.50;;;;;;5054679;28;20257;-89
2021/12/26 10:26:55;;;;;;;10.60;6.30;;;-4.60;82.70;;;;;;5054662;28;20168;-89
2021/12/26 10:29:38;;;;;;;11.73;6.17;;;-4.60;82.60;;;;;;5054969;28;20704;-88
2021/12/26 10:32:04;;;;;;;10.30;6.73;;;-4.50;82.30;;;;;;5054591;28;20202;-88
2021/12/26 10:34:45;;;;;;;9.83;5.67;;;-4.40;81.60;;;;;;5054408;28;20227;-88
2021/12/26 10:37:28;;;;;;;7.90;6.23;;;-4.40;81.50;;;;;;5055708;28;20165;-88
2021/12/26 10:39:57;;;;;;;7.60;5.50;;;-4.30;81.70;;;;;;5055629;28;20163;-87
2021/12/26 10:42:29;;;;;;;9.50;5.13;;;-4.20;81.10;;;;;;5055590;28;20227;-87
2021/12/26 10:45:01;;;;;;;12.07;6.30;;;-4.20;80.50;;;;;;5054863;28;20188;-87
2021/12/26 10:47:29;;;;;;;9.60;5.67;;;-4.10;80.30;;;;;;5055491;28;20160;-86
2021/12/26 10:50:06;;;;;;;8.07;5.50;;;-4.00;80.40;;;;;;5054489;28;20168;-87
2021/12/26 10:52:39;;;;;;;9.60;6.10;;;-3.90;80.00;;;;;;5054214;28;20164;-88
2021/12/26 10:55:13;;;;;;;8.53;6.07;;;-3.80;79.80;;;;;;5055400;28;20617;-88
2021/12/26 10:57:41;;;;;;;15.27;6.17;;;-3.80;80.10;;;;;;5054033;28;20168;-88
2021/12/26 11:00:13;;;;;;;8.63;5.50;;;-3.70;79.80;;;;;;5055271;28;20234;-88
2021/12/26 11:02:51;;;;;;;11.10;5.80;;;-3.60;79.20;;;;;;5053990;28;20203;-87
2021/12/26 11:05:21;;;;;;;10.63;5.40;;;-3.60;78.30;;;;;;5054731;28;20275;-88
2021/12/26 11:07:49;;;;;;;7.03;5.00;;;-3.40;78.00;;;;;;5053927;28;20636;-88
2021/12/26 11:10:35;;;;;;;8.23;5.07;;;-3.40;76.90;;;;;;5053929;28;20178;-88
2021/12/26 11:13:05;;;;;;;5.77;4.37;;;-3.20;77.20;;;;;;5055305;28;20188;-88
2021/12/26 11:15:37;;;;;;;5.70;4.43;;;-3.10;77.30;;;;;;5053477;28;20273;-88
2021/12/26 11:18:09;;;;;;;7.97;4.10;;;-3.10;76.30;;;;;;5054927;28;20167;-87
2021/12/26 11:20:37;;;;;;;8.73;5.00;;;-3.00;75.80;;;;;;5054216;28;20172;-87
2021/12/26 11:23:09;;;;;;;6.60;4.23;;;-2.90;76.10;;;;;;5053478;28;20223;-89
2021/12/26 11:25:46;;;;;;;5.63;4.47;;;-2.80;75.60;;;;;;5053478;28;20200;-89
2021/12/26 11:28:15;;;;;;;12.90;4.27;;;-2.80;74.50;;;;;;5053568;28;20252;-89
2021/12/26 11:30:42;;;;;;;7.27;4.20;;;-2.70;74.30;;;;;;5053449;28;20172;-88
2021/12/26 11:33:09;;;;;;;8.90;4.13;;;-2.70;73.80;;;;;;5053360;28;20215;-88
2021/12/26 11:35:37;;;;;;;7.33;3.73;;;-2.60;73.10;;;;;;5054838;28;20644;-88
2021/12/26 11:38:03;;;;;;;7.40;3.97;;;-2.60;72.20;;;;;;5053308;28;20176;-89
2021/12/26 11:40:30;;;;;;;7.53;4.20;;;-2.60;71.40;;;;;;5053222;28;20270;-88
2021/12/26 11:43:18;;;;;;;8.40;3.97;;;-2.60;71.70;;;;;;5053091;28;20208;-90
2021/12/26 11:45:59;;;;;;;4.90;3.40;;;-2.60;71.50;;;;;;5053834;28;20660;-89
2021/12/26 11:48:39;;;;;;;4.97;3.27;;;-2.50;70.40;;;;;;5053174;28;20169;-88
2021/12/26 11:51:19;;;;;;;4.83;3.20;;;-2.50;69.50;;;;;;5053037;28;20675;-90
2021/12/26 11:54:13;;;;;;;7.03;3.10;;;-2.50;69.60;;;;;;5052977;28;20183;-89
2021/12/26 11:56:55;;;;;;;4.53;3.30;;;-2.40;70.10;;;;;;5054546;28;20168;-89
2021/12/26 11:59:50;;;;;;;4.67;2.73;;;-2.40;69.50;;;;;;5052807;28;20168;-89
2021/12/26 12:02:37;;;;;;;2.73;2.23;;;-2.30;69.00;;;;;;5053320;28;20697;-88
2021/12/26 12:05:07;;;;;;;12.70;3.87;;;-2.40;67.80;;;;;;5052820;28;20188;-88
2021/12/26 12:07:59;;;;;;;6.33;3.43;;;-2.30;68.60;;;;;;5053051;28;20199;-89
2021/12/26 12:10:44;;;;;;;5.57;3.37;;;-2.30;68.10;;;;;;5053610;28;20166;-89
2021/12/26 12:13:11;;;;;;;6.50;3.83;;;-2.20;69.60;;;;;;5052750;28;20168;-89
2021/12/26 12:15:48;;;;;;;4.47;3.80;;;-2.20;67.70;;;;;;5052675;28;20239;-89
2021/12/26 12:18:20;;;;;;;5.90;3.80;;;-2.20;67.40;;;;;;5053374;28;20164;-90
2021/12/26 12:20:48;;;;;;;7.67;3.57;;;-2.10;66.50;;;;;;5052659;28;20623;-90
2021/12/26 12:23:19;;;;;;;7.30;3.77;;;-2.10;65.40;;;;;;5052420;28;20199;-90
2021/12/26 12:25:50;;;;;;;3.93;3.03;;;-2.10;65.80;;;;;;5052479;28;20199;-91
2021/12/26 12:28:20;;;;;;;7.03;3.60;;;-2.10;65.50;;;;;;5052483;28;20164;-90
2021/12/26 12:30:49;;;;;;;5.93;3.03;;;-2.00;65.60;;;;;;5052397;28;20182;-90
2021/12/26 12:33:32;;;;;;;4.50;2.90;;;-2.00;64.70;;;;;;5052423;28;20176;-91
2021/12/26 12:36:02;;;;;;;5.87;3.60;;;-2.00;64.40;;;;;;5052459;28;20201;-91
2021/12/26 12:38:40;;;;;;;6.07;3.30;;;-1.90;65.20;;;;;;5052441;28;20164;-91
2021/12/26 12:41:26;;;;;;;5.87;2.83;;;-1.90;64.00;;;;;;5052248;28;20536;-91